Aérodrome :
LOGIN :

S'inscrire | Disclaimer

   EN    FR    IT 

 










Légende :    VFR   VFR Marginal   IFR   IFR Intensif   IFR Très Intensif
Visi : 
Plafond : 
>= 8 km
>= 3000ft
5 à 8 km
1000 à 3000 ft
1500m à 5 km
500 à 1000 ft
800 à 1500m
200 à 500 ft
< 800m
< 200 ft
Symboles :   Orages  Brouillard  Fortes neiges  Fortes précipitations  Vent > 20 kt
SIGMETs :   Divers  Orages  Givrage  Turbulence  Onde Orograph.  Cendres Volcan.






- Altitude de l'aérodrome : 26 ft
- Code IATA : BIA


LFKB - Bastia

DERNIER METAR :
  • 130800Z AUTO 12005KT 090V160 CAVOK 29/21 Q1016 NOSIG

METARs EXPIRÉS :
  • 130730Z AUTO 13005KT 100V170 CAVOK 28/19 Q1016 NOSIG
  • 130700Z AUTO VRB03KT CAVOK 28/18 Q1016 NOSIG
  • 130630Z AUTO 19005KT 140V230 CAVOK 26/16 Q1016 NOSIG
  • 130600Z AUTO 20006KT CAVOK 24/16 Q1015 BECMG 12010KT
  • 130530Z AUTO 21003KT CAVOK 22/17 Q1016 BECMG 12010KT

TAF TAF LFKB
Valide du 13 à 03h jusqu'au 14 à 03h UTC


130200Z 1303/1403 21003KT 9999 FEW025 BKN190 TX31/1311Z TN22/1303Z
BECMG 1307/1309 12010KT
BECMG 1318/1320 VRB03KT
ATIS : +33 4 95 59 19 40



MET'MAP, la Météo Aéronautique d'un coup d'oeil ! - Copyright ORBIFLY Décembre 2007 - Disclaimer

ORBIFLY MET'MAP TEAM :

Programmation & Développement : Alexandra Zaïnal
Sur une idée originale de : Baudouin d'Aumeries
Assistance à la programmation : Marc-Olivier Méhu
Soutien technique & logistique : Manuel Goepfert

Contact : metmap@orbifly.com




SOURCES & CREDITS :

   NOAA